sensor_id;sensor_type;location;lat;lon;timestamp;temperature;humidity
29917;DHT22;16786;49.466;11.068;2024-03-23T00:53:52;10.50;99.90
29917;DHT22;16786;49.466;11.068;2024-03-23T00:56:18;10.50;99.90
29917;DHT22;16786;49.466;11.068;2024-03-23T00:58:44;10.50;99.90
29917;DHT22;16786;49.466;11.068;2024-03-23T01:01:10;10.40;99.90
29917;DHT22;16786;49.466;11.068;2024-03-23T01:03:36;10.40;99.90
29917;DHT22;16786;49.466;11.068;2024-03-23T01:06:03;10.40;99.90
29917;DHT22;16786;49.466;11.068;2024-03-23T01:08:32;10.30;99.90
29917;DHT22;16786;49.466;11.068;2024-03-23T01:10:59;10.20;99.90
29917;DHT22;16786;49.466;11.068;2024-03-23T01:13:26;10.20;99.90
29917;DHT22;16786;49.466;11.068;2024-03-23T01:15:53;10.20;99.90
29917;DHT22;16786;49.466;11.068;2024-03-23T01:18:20;10.10;99.90
29917;DHT22;16786;49.466;11.068;2024-03-23T01:20:46;10.20;99.90
29917;DHT22;16786;49.466;11.068;2024-03-23T01:23:13;10.30;99.90
29917;DHT22;16786;49.466;11.068;2024-03-23T01:25:39;10.30;99.90
29917;DHT22;16786;49.466;11.068;2024-03-23T01:28:05;10.40;99.90
29917;DHT22;16786;49.466;11.068;2024-03-23T01:30:35;10.40;99.90
29917;DHT22;16786;49.466;11.068;2024-03-23T01:33:02;10.40;99.90
29917;DHT22;16786;49.466;11.068;2024-03-23T01:35:28;10.40;99.90
29917;DHT22;16786;49.466;11.068;2024-03-23T01:37:54;10.40;99.90
29917;DHT22;16786;49.466;11.068;2024-03-23T01:40:20;10.40;99.90
29917;DHT22;16786;49.466;11.068;2024-03-23T01:43:03;10.60;99.90
29917;DHT22;16786;49.466;11.068;2024-03-23T01:45:30;10.60;99.90
29917;DHT22;16786;49.466;11.068;2024-03-23T01:47:57;10.70;99.90
29917;DHT22;16786;49.466;11.068;2024-03-23T01:50:24;10.70;99.90
29917;DHT22;16786;49.466;11.068;2024-03-23T01:52:50;10.80;99.90
29917;DHT22;16786;49.466;11.068;2024-03-23T01:55:16;10.80;99.90
29917;DHT22;16786;49.466;11.068;2024-03-23T01:57:43;10.90;99.90
29917;DHT22;16786;49.466;11.068;2024-03-23T02:00:09;10.90;99.90
29917;DHT22;16786;49.466;11.068;2024-03-23T02:02:45;10.90;99.90
29917;DHT22;16786;49.466;11.068;2024-03-23T02:05:14;11.00;99.90
29917;DHT22;16786;49.466;11.068;2024-03-23T02:07:41;11.00;99.90
29917;DHT22;16786;49.466;11.068;2024-03-23T02:10:09;11.10;99.90
29917;DHT22;16786;49.466;11.068;2024-03-23T02:12:36;11.10;99.90
29917;DHT22;16786;49.466;11.068;2024-03-23T02:15:03;11.10;99.90
29917;DHT22;16786;49.466;11.068;2024-03-23T02:17:33;11.10;99.90
29917;DHT22;16786;49.466;11.068;2024-03-23T02:19:59;11.10;99.90
29917;DHT22;16786;49.466;11.068;2024-03-23T02:22:37;11.10;99.90
29917;DHT22;16786;49.466;11.068;2024-03-23T02:25:04;11.10;99.90
29917;DHT22;16786;49.466;11.068;2024-03-23T02:27:30;11.10;99.90
29917;DHT22;16786;49.466;11.068;2024-03-23T02:29:56;11.10;99.90
29917;DHT22;16786;49.466;11.068;2024-03-23T02:32:22;11.00;99.90
29917;DHT22;16786;49.466;11.068;2024-03-23T02:34:48;11.10;99.90
29917;DHT22;16786;49.466;11.068;2024-03-23T02:37:14;11.00;99.90
29917;DHT22;16786;49.466;11.068;2024-03-23T02:39:40;11.00;99.90
29917;DHT22;16786;49.466;11.068;2024-03-23T02:42:06;11.10;99.90
29917;DHT22;16786;49.466;11.068;2024-03-23T02:44:32;11.10;99.90
29917;DHT22;16786;49.466;11.068;2024-03-23T02:46:58;11.10;99.90
29917;DHT22;16786;49.466;11.068;2024-03-23T02:49:25;11.10;99.90
29917;DHT22;16786;49.466;11.068;2024-03-23T02:51:51;11.20;99.90
29917;DHT22;16786;49.466;11.068;2024-03-23T02:54:17;11.10;99.90
29917;DHT22;16786;49.466;11.068;2024-03-23T02:56:43;11.10;99.90
29917;DHT22;16786;49.466;11.068;2024-03-23T02:59:09;11.10;99.90
29917;DHT22;16786;49.466;11.068;2024-03-23T03:01:35;11.00;99.90
29917;DHT22;16786;49.466;11.068;2024-03-23T03:04:01;11.00;99.90
29917;DHT22;16786;49.466;11.068;2024-03-23T03:06:27;11.10;99.90
29917;DHT22;16786;49.466;11.068;2024-03-23T03:08:54;11.10;99.90
29917;DHT22;16786;49.466;11.068;2024-03-23T03:11:20;11.10;99.90
29917;DHT22;16786;49.466;11.068;2024-03-23T03:13:46;11.20;99.90
29917;DHT22;16786;49.466;11.068;2024-03-23T03:16:12;11.20;99.90
29917;DHT22;16786;49.466;11.068;2024-03-23T03:18:39;11.20;99.90
29917;DHT22;16786;49.466;11.068;2024-03-23T03:21:06;11.20;99.90
29917;DHT22;16786;49.466;11.068;2024-03-23T03:23:39;11.20;99.90
29917;DHT22;16786;49.466;11.068;2024-03-23T03:26:06;11.20;99.90
29917;DHT22;16786;49.466;11.068;2024-03-23T03:28:32;11.20;99.90
29917;DHT22;16786;49.466;11.068;2024-03-23T03:30:59;11.20;99.90
29917;DHT22;16786;49.466;11.068;2024-03-23T03:33:29;11.10;99.90
29917;DHT22;16786;49.466;11.068;2024-03-23T03:35:55;11.00;99.90
29917;DHT22;16786;49.466;11.068;2024-03-23T03:38:21;10.90;99.90
29917;DHT22;16786;49.466;11.068;2024-03-23T03:40:47;10.90;99.90
29917;DHT22;16786;49.466;11.068;2024-03-23T03:43:13;10.80;99.90
29917;DHT22;16786;49.466;11.068;2024-03-23T03:45:40;10.90;99.90
29917;DHT22;16786;49.466;11.068;2024-03-23T03:48:06;10.90;99.90
29917;DHT22;16786;49.466;11.068;2024-03-23T03:50:32;11.00;99.90
29917;DHT22;16786;49.466;11.068;2024-03-23T03:52:58;11.00;99.90
29917;DHT22;16786;49.466;11.068;2024-03-23T03:55:24;11.00;99.90
29917;DHT22;16786;49.466;11.068;2024-03-23T03:57:50;10.90;99.90
29917;DHT22;16786;49.466;11.068;2024-03-23T04:00:16;10.90;99.90
29917;DHT22;16786;49.466;11.068;2024-03-23T04:02:42;10.90;99.90
29917;DHT22;16786;49.466;11.068;2024-03-23T04:05:08;10.90;99.90
29917;DHT22;16786;49.466;11.068;2024-03-23T04:07:34;10.90;99.90
29917;DHT22;16786;49.466;11.068;2024-03-23T04:10:00;10.90;99.90
29917;DHT22;16786;49.466;11.068;2024-03-23T04:12:26;10.80;99.90
29917;DHT22;16786;49.466;11.068;2024-03-23T04:14:52;10.80;99.90
29917;DHT22;16786;49.466;11.068;2024-03-23T04:17:19;10.70;99.90
29917;DHT22;16786;49.466;11.068;2024-03-23T04:19:45;10.70;99.90
29917;DHT22;16786;49.466;11.068;2024-03-23T04:22:11;10.60;99.90
29917;DHT22;16786;49.466;11.068;2024-03-23T04:24:37;10.60;99.90
29917;DHT22;16786;49.466;11.068;2024-03-23T04:27:03;10.50;99.90
29917;DHT22;16786;49.466;11.068;2024-03-23T04:29:29;10.60;99.90
29917;DHT22;16786;49.466;11.068;2024-03-23T04:31:55;10.60;99.90
29917;DHT22;16786;49.466;11.068;2024-03-23T04:34:21;10.60;99.90
29917;DHT22;16786;49.466;11.068;2024-03-23T04:36:48;10.60;99.90
29917;DHT22;16786;49.466;11.068;2024-03-23T04:39:14;10.60;99.90
29917;DHT22;16786;49.466;11.068;2024-03-23T04:41:40;10.60;99.90
29917;DHT22;16786;49.466;11.068;2024-03-23T04:44:07;10.70;99.90
29917;DHT22;16786;49.466;11.068;2024-03-23T04:46:33;10.70;99.90
29917;DHT22;16786;49.466;11.068;2024-03-23T04:48:59;10.70;99.90
29917;DHT22;16786;49.466;11.068;2024-03-23T04:51:25;10.60;99.90
29917;DHT22;16786;49.466;11.068;2024-03-23T04:53:51;10.60;99.90
29917;DHT22;16786;49.466;11.068;2024-03-23T04:56:18;10.50;99.90
29917;DHT22;16786;49.466;11.068;2024-03-23T04:58:44;10.40;99.90
29917;DHT22;16786;49.466;11.068;2024-03-23T05:01:13;10.40;99.90
29917;DHT22;16786;49.466;11.068;2024-03-23T05:03:39;10.30;99.90
29917;DHT22;16786;49.466;11.068;2024-03-23T05:06:06;10.30;99.90
29917;DHT22;16786;49.466;11.068;2024-03-23T05:08:32;10.30;99.90
29917;DHT22;16786;49.466;11.068;2024-03-23T05:10:58;10.30;99.90
29917;DHT22;16786;49.466;11.068;2024-03-23T05:13:24;10.40;99.90
29917;DHT22;16786;49.466;11.068;2024-03-23T05:15:54;10.40;99.90
29917;DHT22;16786;49.466;11.068;2024-03-23T05:18:20;10.40;99.90
29917;DHT22;16786;49.466;11.068;2024-03-23T05:20:46;10.50;99.90
29917;DHT22;16786;49.466;11.068;2024-03-23T05:23:13;10.50;99.90
29917;DHT22;16786;49.466;11.068;2024-03-23T05:25:38;10.70;99.90
29917;DHT22;16786;49.466;11.068;2024-03-23T05:28:05;10.70;99.90
29917;DHT22;16786;49.466;11.068;2024-03-23T05:30:31;10.90;99.90
29917;DHT22;16786;49.466;11.068;2024-03-23T05:32:57;11.00;99.90
29917;DHT22;16786;49.466;11.068;2024-03-23T05:35:23;11.10;99.90
29917;DHT22;16786;49.466;11.068;2024-03-23T05:37:49;11.20;99.90
29917;DHT22;16786;49.466;11.068;2024-03-23T05:40:16;11.20;99.90
29917;DHT22;16786;49.466;11.068;2024-03-23T05:42:42;11.20;99.90
29917;DHT22;16786;49.466;11.068;2024-03-23T05:45:08;11.30;99.90
29917;DHT22;16786;49.466;11.068;2024-03-23T05:47:34;11.30;99.90
29917;DHT22;16786;49.466;11.068;2024-03-23T05:50:00;11.50;99.90
29917;DHT22;16786;49.466;11.068;2024-03-23T05:52:28;11.50;99.90
29917;DHT22;16786;49.466;11.068;2024-03-23T05:54:55;11.50;99.90
29917;DHT22;16786;49.466;11.068;2024-03-23T05:57:21;11.50;99.90
29917;DHT22;16786;49.466;11.068;2024-03-23T05:59:47;11.60;99.90
29917;DHT22;16786;49.466;11.068;2024-03-23T06:02:13;11.60;99.90
29917;DHT22;16786;49.466;11.068;2024-03-23T06:04:40;11.60;99.90
29917;DHT22;16786;49.466;11.068;2024-03-23T06:07:06;11.60;99.90
29917;DHT22;16786;49.466;11.068;2024-03-23T06:09:32;11.60;99.90
29917;DHT22;16786;49.466;11.068;2024-03-23T06:11:58;11.60;99.90
29917;DHT22;16786;49.466;11.068;2024-03-23T06:14:24;11.60;99.90
29917;DHT22;16786;49.466;11.068;2024-03-23T06:16:50;11.50;99.90
29917;DHT22;16786;49.466;11.068;2024-03-23T06:19:16;11.40;99.90
29917;DHT22;16786;49.466;11.068;2024-03-23T06:21:45;11.10;99.90
29917;DHT22;16786;49.466;11.068;2024-03-23T06:24:12;11.00;99.90
29917;DHT22;16786;49.466;11.068;2024-03-23T06:26:38;10.80;99.90
29917;DHT22;16786;49.466;11.068;2024-03-23T06:29:04;10.90;99.90
29917;DHT22;16786;49.466;11.068;2024-03-23T06:31:31;10.80;99.90
29917;DHT22;16786;49.466;11.068;2024-03-23T06:33:57;10.80;99.90
29917;DHT22;16786;49.466;11.068;2024-03-23T06:36:23;10.80;99.90
29917;DHT22;16786;49.466;11.068;2024-03-23T06:38:50;10.80;99.90
29917;DHT22;16786;49.466;11.068;2024-03-23T06:41:17;10.80;99.90
29917;DHT22;16786;49.466;11.068;2024-03-23T06:43:43;10.80;99.90
29917;DHT22;16786;49.466;11.068;2024-03-23T06:46:09;10.80;99.90
29917;DHT22;16786;49.466;11.068;2024-03-23T06:48:35;10.80;99.90
29917;DHT22;16786;49.466;11.068;2024-03-23T06:51:01;10.90;99.90
29917;DHT22;16786;49.466;11.068;2024-03-23T06:53:27;10.90;99.90
29917;DHT22;16786;49.466;11.068;2024-03-23T06:55:54;10.90;99.90
29917;DHT22;16786;49.466;11.068;2024-03-23T06:58:21;10.90;99.90
29917;DHT22;16786;49.466;11.068;2024-03-23T07:00:47;10.90;99.90
29917;DHT22;16786;49.466;11.068;2024-03-23T07:03:14;10.90;99.90
29917;DHT22;16786;49.466;11.068;2024-03-23T07:05:40;10.90;99.90
29917;DHT22;16786;49.466;11.068;2024-03-23T07:08:06;10.90;99.90
29917;DHT22;16786;49.466;11.068;2024-03-23T07:10:32;10.90;99.90
29917;DHT22;16786;49.466;11.068;2024-03-23T07:12:58;10.90;99.90
29917;DHT22;16786;49.466;11.068;2024-03-23T07:15:24;10.90;99.90
29917;DHT22;16786;49.466;11.068;2024-03-23T07:17:50;10.90;99.90
29917;DHT22;16786;49.466;11.068;2024-03-23T07:20:16;10.90;99.90
29917;DHT22;16786;49.466;11.068;2024-03-23T07:22:42;10.80;99.90
29917;DHT22;16786;49.466;11.068;2024-03-23T07:25:08;10.80;99.90
29917;DHT22;16786;49.466;11.068;2024-03-23T07:27:34;10.80;99.90
29917;DHT22;16786;49.466;11.068;2024-03-23T07:30:00;10.80;99.90
29917;DHT22;16786;49.466;11.068;2024-03-23T07:32:27;10.80;99.90
29917;DHT22;16786;49.466;11.068;2024-03-23T07:34:53;10.70;99.90
29917;DHT22;16786;49.466;11.068;2024-03-23T07:37:19;10.70;99.90
29917;DHT22;16786;49.466;11.068;2024-03-23T07:39:45;10.70;99.90
29917;DHT22;16786;49.466;11.068;2024-03-23T07:42:11;10.70;99.90
29917;DHT22;16786;49.466;11.068;2024-03-23T07:44:37;10.70;99.90
29917;DHT22;16786;49.466;11.068;2024-03-23T07:47:03;10.60;99.90
29917;DHT22;16786;49.466;11.068;2024-03-23T07:49:29;10.60;99.90
29917;DHT22;16786;49.466;11.068;2024-03-23T07:51:55;10.50;99.90
29917;DHT22;16786;49.466;11.068;2024-03-23T07:54:21;10.60;99.90
29917;DHT22;16786;49.466;11.068;2024-03-23T07:56:47;10.70;99.90
29917;DHT22;16786;49.466;11.068;2024-03-23T07:59:13;10.80;99.90
29917;DHT22;16786;49.466;11.068;2024-03-23T08:01:39;10.90;99.90
29917;DHT22;16786;49.466;11.068;2024-03-23T08:04:05;10.90;99.90
29917;DHT22;16786;49.466;11.068;2024-03-23T08:06:32;10.90;99.90
29917;DHT22;16786;49.466;11.068;2024-03-23T08:08:58;11.00;99.90
29917;DHT22;16786;49.466;11.068;2024-03-23T08:11:28;11.10;99.90
29917;DHT22;16786;49.466;11.068;2024-03-23T08:13:55;11.30;99.90
29917;DHT22;16786;49.466;11.068;2024-03-23T08:16:21;11.30;99.90
29917;DHT22;16786;49.466;11.068;2024-03-23T08:18:47;11.20;99.90
29917;DHT22;16786;49.466;11.068;2024-03-23T08:21:13;11.00;99.90
29917;DHT22;16786;49.466;11.068;2024-03-23T08:23:40;10.80;99.90
29917;DHT22;16786;49.466;11.068;2024-03-23T08:26:11;10.40;99.90
29917;DHT22;16786;49.466;11.068;2024-03-23T08:28:37;9.70;99.90
29917;DHT22;16786;49.466;11.068;2024-03-23T08:31:08;9.40;99.90
29917;DHT22;16786;49.466;11.068;2024-03-23T08:33:34;9.00;99.90
29917;DHT22;16786;49.466;11.068;2024-03-23T08:36:02;9.00;99.90
29917;DHT22;16786;49.466;11.068;2024-03-23T08:38:28;8.90;99.90
29917;DHT22;16786;49.466;11.068;2024-03-23T08:41:02;8.90;99.90
29917;DHT22;16786;49.466;11.068;2024-03-23T08:43:29;8.90;99.90
29917;DHT22;16786;49.466;11.068;2024-03-23T08:46:15;9.10;99.90
29917;DHT22;16786;49.466;11.068;2024-03-23T08:48:46;9.00;99.90
29917;DHT22;16786;49.466;11.068;2024-03-23T08:51:16;9.00;99.90
29917;DHT22;16786;49.466;11.068;2024-03-23T08:53:42;8.90;99.90
29917;DHT22;16786;49.466;11.068;2024-03-23T08:56:09;9.20;99.90
29917;DHT22;16786;49.466;11.068;2024-03-23T08:58:36;9.50;99.90
29917;DHT22;16786;49.466;11.068;2024-03-23T09:01:10;9.60;99.90
29917;DHT22;16786;49.466;11.068;2024-03-23T09:03:37;9.70;99.90
29917;DHT22;16786;49.466;11.068;2024-03-23T09:06:10;9.70;99.90
29917;DHT22;16786;49.466;11.068;2024-03-23T09:08:37;9.70;99.90
29917;DHT22;16786;49.466;11.068;2024-03-23T09:11:07;9.30;99.90
29917;DHT22;16786;49.466;11.068;2024-03-23T09:13:37;9.10;99.90
29917;DHT22;16786;49.466;11.068;2024-03-23T09:16:05;9.10;99.90
29917;DHT22;16786;49.466;11.068;2024-03-23T09:18:32;9.30;99.90
29917;DHT22;16786;49.466;11.068;2024-03-23T09:20:59;9.40;99.90
29917;DHT22;16786;49.466;11.068;2024-03-23T09:23:25;9.40;99.90
29917;DHT22;16786;49.466;11.068;2024-03-23T09:25:51;9.30;99.90
29917;DHT22;16786;49.466;11.068;2024-03-23T09:28:17;9.10;99.90
29917;DHT22;16786;49.466;11.068;2024-03-23T09:30:43;9.00;99.90
29917;DHT22;16786;49.466;11.068;2024-03-23T09:33:09;9.00;99.90
29917;DHT22;16786;49.466;11.068;2024-03-23T09:35:39;8.80;99.90
29917;DHT22;16786;49.466;11.068;2024-03-23T09:38:05;8.80;99.90
29917;DHT22;16786;49.466;11.068;2024-03-23T09:40:33;8.80;99.90
29917;DHT22;16786;49.466;11.068;2024-03-23T09:42:59;9.00;99.90
29917;DHT22;16786;49.466;11.068;2024-03-23T09:45:29;9.10;99.90
29917;DHT22;16786;49.466;11.068;2024-03-23T09:47:55;9.30;99.90
29917;DHT22;16786;49.466;11.068;2024-03-23T09:50:22;9.20;99.90
29917;DHT22;16786;49.466;11.068;2024-03-23T09:52:48;9.20;99.90
29917;DHT22;16786;49.466;11.068;2024-03-23T09:55:15;9.30;99.90
29917;DHT22;16786;49.466;11.068;2024-03-23T09:57:41;9.40;99.90
29917;DHT22;16786;49.466;11.068;2024-03-23T10:00:08;9.60;99.90
29917;DHT22;16786;49.466;11.068;2024-03-23T10:02:35;9.60;99.90
29917;DHT22;16786;49.466;11.068;2024-03-23T10:05:02;9.60;99.90
29917;DHT22;16786;49.466;11.068;2024-03-23T10:07:28;9.80;99.90
29917;DHT22;16786;49.466;11.068;2024-03-23T10:09:54;9.80;99.90
29917;DHT22;16786;49.466;11.068;2024-03-23T10:12:21;9.70;99.90
29917;DHT22;16786;49.466;11.068;2024-03-23T10:14:47;9.60;99.90
29917;DHT22;16786;49.466;11.068;2024-03-23T10:17:21;9.80;99.90
29917;DHT22;16786;49.466;11.068;2024-03-23T10:19:51;9.60;99.90
29917;DHT22;16786;49.466;11.068;2024-03-23T10:22:19;9.50;99.90
29917;DHT22;16786;49.466;11.068;2024-03-23T10:24:45;9.60;99.90
29917;DHT22;16786;49.466;11.068;2024-03-23T10:27:21;9.60;99.90
29917;DHT22;16786;49.466;11.068;2024-03-23T10:29:48;9.70;99.90
29917;DHT22;16786;49.466;11.068;2024-03-23T10:32:16;9.70;99.90
29917;DHT22;16786;49.466;11.068;2024-03-23T10:34:42;9.70;99.90
29917;DHT22;16786;49.466;11.068;2024-03-23T10:37:09;9.80;99.90
29917;DHT22;16786;49.466;11.068;2024-03-23T10:39:37;9.90;99.90
29917;DHT22;16786;49.466;11.068;2024-03-23T10:42:04;9.90;99.90
29917;DHT22;16786;49.466;11.068;2024-03-23T10:44:31;10.00;99.90
29917;DHT22;16786;49.466;11.068;2024-03-23T10:47:01;9.80;99.90
29917;DHT22;16786;49.466;11.068;2024-03-23T10:49:32;9.80;99.90
29917;DHT22;16786;49.466;11.068;2024-03-23T10:52:00;9.60;99.90
29917;DHT22;16786;49.466;11.068;2024-03-23T10:54:27;9.60;99.90
29917;DHT22;16786;49.466;11.068;2024-03-23T10:57:01;9.70;99.90
29917;DHT22;16786;49.466;11.068;2024-03-23T10:59:30;9.80;99.90
29917;DHT22;16786;49.466;11.068;2024-03-23T11:01:57;9.90;99.90
29917;DHT22;16786;49.466;11.068;2024-03-23T11:04:30;9.60;99.90
29917;DHT22;16786;49.466;11.068;2024-03-23T11:06:57;9.50;99.90
29917;DHT22;16786;49.466;11.068;2024-03-23T11:12:28;9.90;99.90
29917;DHT22;16786;49.466;11.068;2024-03-23T11:15:11;10.30;99.90
29917;DHT22;16786;49.466;11.068;2024-03-23T11:17:38;10.40;99.90
29917;DHT22;16786;49.466;11.068;2024-03-23T11:20:05;10.50;99.90
29917;DHT22;16786;49.466;11.068;2024-03-23T11:22:42;10.70;99.90
29917;DHT22;16786;49.466;11.068;2024-03-23T11:25:21;11.20;99.90
29917;DHT22;16786;49.466;11.068;2024-03-23T11:27:52;10.90;99.90
29917;DHT22;16786;49.466;11.068;2024-03-23T11:32:56;10.40;99.90
29917;DHT22;16786;49.466;11.068;2024-03-23T11:35:29;10.30;99.90
29917;DHT22;16786;49.466;11.068;2024-03-23T11:38:08;9.90;99.90
29917;DHT22;16786;49.466;11.068;2024-03-23T11:40:36;10.00;99.90
29917;DHT22;16786;49.466;11.068;2024-03-23T11:43:06;9.90;99.90
29917;DHT22;16786;49.466;11.068;2024-03-23T11:45:40;9.80;99.90
29917;DHT22;16786;49.466;11.068;2024-03-23T11:48:12;9.90;99.90
29917;DHT22;16786;49.466;11.068;2024-03-23T11:50:40;10.40;99.90
29917;DHT22;16786;49.466;11.068;2024-03-23T11:55:51;11.40;99.90
29917;DHT22;16786;49.466;11.068;2024-03-23T11:58:20;11.30;99.90
29917;DHT22;16786;49.466;11.068;2024-03-23T12:00:52;10.90;99.90
29917;DHT22;16786;49.466;11.068;2024-03-23T12:03:19;11.10;99.90
29917;DHT22;16786;49.466;11.068;2024-03-23T12:05:53;10.60;99.90
29917;DHT22;16786;49.466;11.068;2024-03-23T12:11:04;11.10;99.90
29917;DHT22;16786;49.466;11.068;2024-03-23T12:13:30;11.50;99.90
29917;DHT22;16786;49.466;11.068;2024-03-23T12:18:34;12.40;99.90
29917;DHT22;16786;49.466;11.068;2024-03-23T12:21:00;12.50;99.90
29917;DHT22;16786;49.466;11.068;2024-03-23T12:23:26;12.60;99.90
29917;DHT22;16786;49.466;11.068;2024-03-23T12:25:52;12.40;99.90
29917;DHT22;16786;49.466;11.068;2024-03-23T12:28:18;11.90;99.90
29917;DHT22;16786;49.466;11.068;2024-03-23T12:30:44;11.40;99.90
29917;DHT22;16786;49.466;11.068;2024-03-23T12:33:10;11.70;99.90
29917;DHT22;16786;49.466;11.068;2024-03-23T12:35:36;12.30;99.90
29917;DHT22;16786;49.466;11.068;2024-03-23T12:38:02;13.10;99.90
29917;DHT22;16786;49.466;11.068;2024-03-23T12:40:28;14.20;99.90
29917;DHT22;16786;49.466;11.068;2024-03-23T12:42:54;14.00;99.90
29917;DHT22;16786;49.466;11.068;2024-03-23T12:45:22;14.40;99.90
29917;DHT22;16786;49.466;11.068;2024-03-23T12:47:48;14.20;99.90
29917;DHT22;16786;49.466;11.068;2024-03-23T12:50:14;13.60;99.90
29917;DHT22;16786;49.466;11.068;2024-03-23T12:52:40;13.80;99.90
29917;DHT22;16786;49.466;11.068;2024-03-23T12:55:06;13.80;99.90
29917;DHT22;16786;49.466;11.068;2024-03-23T12:57:32;13.80;99.90
29917;DHT22;16786;49.466;11.068;2024-03-23T12:59:59;14.50;99.90
29917;DHT22;16786;49.466;11.068;2024-03-23T13:02:25;15.20;99.90
29917;DHT22;16786;49.466;11.068;2024-03-23T13:04:52;14.90;99.30
29917;DHT22;16786;49.466;11.068;2024-03-23T13:07:19;15.00;99.30
29917;DHT22;16786;49.466;11.068;2024-03-23T13:09:45;16.60;97.30
29917;DHT22;16786;49.466;11.068;2024-03-23T13:12:11;16.60;95.20
29917;DHT22;16786;49.466;11.068;2024-03-23T13:14:41;16.50;94.40
29917;DHT22;16786;49.466;11.068;2024-03-23T13:17:08;17.10;93.30
29917;DHT22;16786;49.466;11.068;2024-03-23T13:19:34;16.70;91.70
29917;DHT22;16786;49.466;11.068;2024-03-23T13:22:01;15.90;90.70
29917;DHT22;16786;49.466;11.068;2024-03-23T13:24:27;15.00;90.80
29917;DHT22;16786;49.466;11.068;2024-03-23T13:26:54;14.90;91.00
29917;DHT22;16786;49.466;11.068;2024-03-23T13:29:21;14.20;91.70
29917;DHT22;16786;49.466;11.068;2024-03-23T13:31:48;13.10;93.20
29917;DHT22;16786;49.466;11.068;2024-03-23T13:34:15;12.30;94.10
29917;DHT22;16786;49.466;11.068;2024-03-23T13:36:42;12.10;94.70
29917;DHT22;16786;49.466;11.068;2024-03-23T13:39:09;13.30;94.00
29917;DHT22;16786;49.466;11.068;2024-03-23T13:41:39;15.70;91.70
29917;DHT22;16786;49.466;11.068;2024-03-23T13:44:10;17.20;86.10
29917;DHT22;16786;49.466;11.068;2024-03-23T13:46:37;17.90;82.60
29917;DHT22;16786;49.466;11.068;2024-03-23T13:49:04;18.50;78.90
29917;DHT22;16786;49.466;11.068;2024-03-23T13:51:30;19.20;76.20
29917;DHT22;16786;49.466;11.068;2024-03-23T13:53:56;19.90;72.20
29917;DHT22;16786;49.466;11.068;2024-03-23T13:56:23;20.20;69.70
29917;DHT22;16786;49.466;11.068;2024-03-23T13:58:49;19.90;67.50
29917;DHT22;16786;49.466;11.068;2024-03-23T14:01:15;18.80;69.30
29917;DHT22;16786;49.466;11.068;2024-03-23T14:03:42;18.30;70.60
29917;DHT22;16786;49.466;11.068;2024-03-23T14:06:09;17.00;71.80
29917;DHT22;16786;49.466;11.068;2024-03-23T14:08:37;17.80;71.60
29917;DHT22;16786;49.466;11.068;2024-03-23T14:11:09;17.60;71.40
29917;DHT22;16786;49.466;11.068;2024-03-23T14:13:35;19.50;67.60
29917;DHT22;16786;49.466;11.068;2024-03-23T14:16:01;19.80;66.00
29917;DHT22;16786;49.466;11.068;2024-03-23T14:18:28;20.60;64.20
29917;DHT22;16786;49.466;11.068;2024-03-23T14:20:59;21.10;62.80
29917;DHT22;16786;49.466;11.068;2024-03-23T14:23:28;22.00;60.50
29917;DHT22;16786;49.466;11.068;2024-03-23T14:25:59;21.30;58.70
29917;DHT22;16786;49.466;11.068;2024-03-23T14:28:25;20.30;58.20
29917;DHT22;16786;49.466;11.068;2024-03-23T14:30:52;18.00;61.90
29917;DHT22;16786;49.466;11.068;2024-03-23T14:33:18;16.30;66.50
29917;DHT22;16786;49.466;11.068;2024-03-23T14:35:57;15.10;68.20
29917;DHT22;16786;49.466;11.068;2024-03-23T14:38:23;14.00;68.60
29917;DHT22;16786;49.466;11.068;2024-03-23T14:40:49;13.90;67.90
29917;DHT22;16786;49.466;11.068;2024-03-23T14:43:17;13.10;69.70
29917;DHT22;16786;49.466;11.068;2024-03-23T14:46:09;14.50;69.20
29917;DHT22;16786;49.466;11.068;2024-03-23T14:48:35;15.60;67.70
29917;DHT22;16786;49.466;11.068;2024-03-23T14:51:02;15.40;69.00
29917;DHT22;16786;49.466;11.068;2024-03-23T14:53:40;15.00;73.30
29917;DHT22;16786;49.466;11.068;2024-03-23T14:56:07;14.00;76.40
29917;DHT22;16786;49.466;11.068;2024-03-23T14:58:33;12.90;80.10
29917;DHT22;16786;49.466;11.068;2024-03-23T15:01:03;11.90;83.90
29917;DHT22;16786;49.466;11.068;2024-03-23T15:03:29;11.20;88.00
29917;DHT22;16786;49.466;11.068;2024-03-23T15:05:59;10.90;90.90
29917;DHT22;16786;49.466;11.068;2024-03-23T15:08:26;10.60;92.60
29917;DHT22;16786;49.466;11.068;2024-03-23T15:10:53;10.50;94.00
29917;DHT22;16786;49.466;11.068;2024-03-23T15:13:19;10.10;97.50
29917;DHT22;16786;49.466;11.068;2024-03-23T15:15:49;9.30;99.90
29917;DHT22;16786;49.466;11.068;2024-03-23T15:18:15;7.90;99.90
29917;DHT22;16786;49.466;11.068;2024-03-23T15:20:42;6.80;99.90
29917;DHT22;16786;49.466;11.068;2024-03-23T15:23:16;6.00;99.90
29917;DHT22;16786;49.466;11.068;2024-03-23T15:25:42;5.60;99.90
29917;DHT22;16786;49.466;11.068;2024-03-23T15:28:08;6.10;99.90
29917;DHT22;16786;49.466;11.068;2024-03-23T15:30:35;8.20;99.90
29917;DHT22;16786;49.466;11.068;2024-03-23T15:33:01;10.40;99.90
29917;DHT22;16786;49.466;11.068;2024-03-23T15:35:28;12.80;99.90
29917;DHT22;16786;49.466;11.068;2024-03-23T15:37:54;14.60;99.90
29917;DHT22;16786;49.466;11.068;2024-03-23T15:40:20;16.40;99.90
29917;DHT22;16786;49.466;11.068;2024-03-23T15:42:46;17.60;99.90
29917;DHT22;16786;49.466;11.068;2024-03-23T15:45:12;18.20;99.90
29917;DHT22;16786;49.466;11.068;2024-03-23T15:47:38;18.80;99.90
29917;DHT22;16786;49.466;11.068;2024-03-23T15:50:05;19.30;99.90
29917;DHT22;16786;49.466;11.068;2024-03-23T15:52:35;19.70;99.90
29917;DHT22;16786;49.466;11.068;2024-03-23T15:55:03;19.20;99.90
29917;DHT22;16786;49.466;11.068;2024-03-23T15:57:35;18.90;99.60
29917;DHT22;16786;49.466;11.068;2024-03-23T16:00:02;18.80;99.60
29917;DHT22;16786;49.466;11.068;2024-03-23T16:02:37;19.90;98.20
29917;DHT22;16786;49.466;11.068;2024-03-23T16:05:03;18.30;95.90
29917;DHT22;16786;49.466;11.068;2024-03-23T16:07:30;17.50;99.70
29917;DHT22;16786;49.466;11.068;2024-03-23T16:09:55;15.80;99.90
29917;DHT22;16786;49.466;11.068;2024-03-23T16:12:22;13.20;99.90
29917;DHT22;16786;49.466;11.068;2024-03-23T16:14:48;12.10;99.90
29917;DHT22;16786;49.466;11.068;2024-03-23T16:17:14;12.60;99.90
29917;DHT22;16786;49.466;11.068;2024-03-23T16:19:40;14.00;99.90
29917;DHT22;16786;49.466;11.068;2024-03-23T16:22:07;15.30;99.90
29917;DHT22;16786;49.466;11.068;2024-03-23T16:24:33;15.70;99.90
29917;DHT22;16786;49.466;11.068;2024-03-23T16:26:59;15.60;99.90